createdAt,value
2022-07-25T00:01:15.102Z,2.70
2022-07-25T00:04:00.828Z,2.60
2022-07-25T00:06:48.290Z,2.60
2022-07-25T00:09:34.287Z,2.70
2022-07-25T00:12:20.533Z,2.53
2022-07-25T00:15:07.170Z,2.77
2022-07-25T00:17:53.048Z,2.80
2022-07-25T00:20:38.375Z,3.10
2022-07-25T00:23:23.867Z,2.73
2022-07-25T00:26:09.170Z,2.87
2022-07-25T00:28:54.469Z,2.77
2022-07-25T00:31:39.895Z,2.90
2022-07-25T00:34:25.089Z,3.03
2022-07-25T00:37:10.514Z,2.57
2022-07-25T00:39:55.741Z,2.93
2022-07-25T00:42:41.015Z,2.50
2022-07-25T00:45:26.366Z,3.03
2022-07-25T00:48:11.692Z,2.87
2022-07-25T00:50:57.405Z,2.57
2022-07-25T00:53:42.948Z,2.97
2022-07-25T00:56:28.462Z,2.80
2022-07-25T00:59:14.020Z,3.00
2022-07-25T01:01:59.608Z,2.97
2022-07-25T01:04:49.367Z,2.57
2022-07-25T01:07:35.550Z,3.07
2022-07-25T01:10:20.972Z,2.80
2022-07-25T01:13:06.499Z,3.10
2022-07-25T01:15:51.938Z,2.50
2022-07-25T01:18:37.509Z,3.27
2022-07-25T01:21:24.843Z,3.00
2022-07-25T01:24:11.020Z,2.70
2022-07-25T01:26:56.596Z,2.90
2022-07-25T01:29:41.935Z,2.87
2022-07-25T01:32:27.344Z,3.20
2022-07-25T01:35:14.047Z,2.97
2022-07-25T01:37:59.568Z,2.90
2022-07-25T01:40:46.292Z,2.63
2022-07-25T01:43:31.949Z,2.70
2022-07-25T01:46:17.360Z,2.90
2022-07-25T01:49:03.334Z,2.80
2022-07-25T01:51:48.708Z,3.00
2022-07-25T01:54:33.971Z,2.67
2022-07-25T01:57:19.869Z,3.13
2022-07-25T02:00:09.122Z,2.87
2022-07-25T02:03:16.026Z,2.70
2022-07-25T02:06:04.387Z,3.13
2022-07-25T02:08:50.030Z,3.33
2022-07-25T02:11:35.897Z,3.00
2022-07-25T02:14:21.586Z,3.00
2022-07-25T02:17:07.201Z,3.27
2022-07-25T02:19:52.828Z,3.10
2022-07-25T02:22:38.014Z,2.90
2022-07-25T02:25:23.140Z,3.03
2022-07-25T02:28:08.711Z,3.20
2022-07-25T02:30:56.242Z,3.20
2022-07-25T02:33:41.605Z,2.87
2022-07-25T02:36:26.827Z,3.40
2022-07-25T02:39:12.527Z,3.20
2022-07-25T02:41:57.726Z,3.03
2022-07-25T02:44:42.979Z,2.93
2022-07-25T02:47:28.228Z,2.97
2022-07-25T02:50:14.837Z,3.50
2022-07-25T02:53:00.335Z,3.20
2022-07-25T02:55:45.782Z,3.37
2022-07-25T02:58:31.498Z,3.20
2022-07-25T03:01:17.077Z,3.03
2022-07-25T03:04:02.698Z,3.40
2022-07-25T03:06:48.205Z,3.47
2022-07-25T03:09:33.448Z,3.20
2022-07-25T03:12:18.825Z,3.03
2022-07-25T03:15:05.235Z,3.50
2022-07-25T03:17:50.566Z,3.30
2022-07-25T03:20:35.762Z,3.50
2022-07-25T03:23:21.138Z,3.53
2022-07-25T03:26:06.538Z,3.10
2022-07-25T03:28:51.980Z,3.50
2022-07-25T03:31:37.345Z,3.43
2022-07-25T03:34:22.394Z,3.63
2022-07-25T03:37:07.632Z,3.27
2022-07-25T03:39:53.027Z,3.43
2022-07-25T03:42:38.709Z,3.30
2022-07-25T03:45:24.207Z,3.10
2022-07-25T03:48:09.715Z,3.30
2022-07-25T03:50:56.916Z,3.77
2022-07-25T03:54:01.000Z,3.80
2022-07-25T03:56:49.285Z,3.63
2022-07-25T03:59:34.780Z,3.70
2022-07-25T04:02:20.288Z,3.63
2022-07-25T04:05:08.367Z,3.80
2022-07-25T04:07:53.902Z,3.97
2022-07-25T04:10:39.276Z,4.10
2022-07-25T04:13:24.406Z,3.60
2022-07-25T04:16:14.466Z,3.80
2022-07-25T04:19:07.846Z,4.23
2022-07-25T04:21:53.891Z,3.93
2022-07-25T04:24:39.000Z,4.00
2022-07-25T04:27:24.370Z,4.70
2022-07-25T04:30:10.687Z,4.50
2022-07-25T04:32:56.333Z,4.13
2022-07-25T04:35:41.812Z,3.90
2022-07-25T04:38:27.133Z,4.70
2022-07-25T04:41:12.609Z,4.43
2022-07-25T04:43:57.960Z,4.47
2022-07-25T04:46:43.191Z,5.43
2022-07-25T04:49:29.029Z,5.13
2022-07-25T04:52:14.464Z,5.80
2022-07-25T04:55:00.723Z,6.07
2022-07-25T04:57:47.202Z,5.83
2022-07-25T05:00:32.865Z,5.40
2022-07-25T05:03:18.376Z,5.53
2022-07-25T05:06:03.735Z,5.50
2022-07-25T05:08:48.997Z,5.30
2022-07-25T05:11:34.246Z,5.50
2022-07-25T05:14:20.099Z,6.20
2022-07-25T05:17:06.813Z,6.13
2022-07-25T05:19:52.317Z,5.70
2022-07-25T05:22:37.558Z,5.67
2022-07-25T05:25:23.102Z,5.60
2022-07-25T05:28:08.243Z,6.27
2022-07-25T05:30:55.118Z,6.17
2022-07-25T05:33:40.294Z,5.43
2022-07-25T05:36:25.547Z,5.63
2022-07-25T05:39:11.131Z,5.50
2022-07-25T05:41:56.461Z,6.00
2022-07-25T05:44:42.039Z,6.23
2022-07-25T05:47:27.336Z,6.40
2022-07-25T05:50:12.741Z,5.57
2022-07-25T05:53:00.428Z,5.80
2022-07-25T05:55:46.116Z,5.70
2022-07-25T05:58:32.141Z,5.70
2022-07-25T06:01:18.387Z,6.00
2022-07-25T06:04:06.677Z,5.60
2022-07-25T06:06:52.417Z,5.67
2022-07-25T06:09:38.673Z,6.47
2022-07-25T06:12:24.373Z,5.63
2022-07-25T06:15:12.638Z,5.73
2022-07-25T06:18:08.047Z,5.87
2022-07-25T06:20:53.851Z,5.70
2022-07-25T06:23:39.219Z,5.77
2022-07-25T06:26:25.100Z,5.83
2022-07-25T06:29:12.174Z,5.80
2022-07-25T06:31:58.005Z,6.50
2022-07-25T06:34:43.916Z,6.30
2022-07-25T06:37:29.578Z,6.00
2022-07-25T06:40:15.719Z,5.97
2022-07-25T06:43:01.919Z,5.60
2022-07-25T06:45:48.444Z,6.30
2022-07-25T06:48:34.406Z,7.43
2022-07-25T06:51:23.396Z,6.60
2022-07-25T06:54:09.557Z,6.80
2022-07-25T06:56:55.435Z,6.70
2022-07-25T06:59:40.943Z,6.70
2022-07-25T07:02:26.326Z,6.70
2022-07-25T07:05:11.688Z,6.77
2022-07-25T07:07:57.922Z,7.03
2022-07-25T07:10:43.766Z,6.73
2022-07-25T07:13:29.265Z,6.73
2022-07-25T07:16:14.480Z,6.53
2022-07-25T07:18:59.829Z,6.80
2022-07-25T07:21:45.786Z,7.13
2022-07-25T07:24:32.430Z,6.73
2022-07-25T07:27:19.029Z,6.83
2022-07-25T07:30:05.462Z,6.50
2022-07-25T07:32:52.295Z,6.53
2022-07-25T07:35:38.116Z,6.63
2022-07-25T07:38:24.460Z,6.60
2022-07-25T07:41:10.091Z,7.07
2022-07-25T07:43:56.491Z,6.90
2022-07-25T07:46:42.023Z,7.07
2022-07-25T07:49:27.383Z,7.33
2022-07-25T07:52:13.064Z,7.03
2022-07-25T07:55:16.831Z,7.43
2022-07-25T07:58:02.406Z,8.23
2022-07-25T08:00:52.687Z,9.90
2022-07-25T08:03:38.263Z,13.20
2022-07-25T08:06:23.808Z,12.13
2022-07-25T08:09:09.589Z,13.70
2022-07-25T08:11:54.893Z,12.97
2022-07-25T08:14:40.371Z,13.47
2022-07-25T08:17:28.646Z,14.30
2022-07-25T08:20:35.769Z,14.30
2022-07-25T08:23:20.353Z,14.37
2022-07-25T08:26:06.752Z,14.17
2022-07-25T08:29:04.922Z,13.93
2022-07-25T08:31:56.719Z,13.97
2022-07-25T08:34:42.438Z,14.27
2022-07-25T08:37:28.578Z,14.30
2022-07-25T08:40:15.516Z,12.57
2022-07-25T08:43:01.066Z,11.53
2022-07-25T08:45:54.091Z,12.40
2022-07-25T08:48:40.477Z,11.82
2022-07-25T08:51:26.022Z,12.17
2022-07-25T08:54:11.458Z,10.90
2022-07-25T08:56:56.712Z,11.40
2022-07-25T08:59:42.726Z,11.30
2022-07-25T09:02:29.230Z,10.43
2022-07-25T09:05:14.554Z,10.27
2022-07-25T09:08:10.009Z,10.10
2022-07-25T09:10:55.609Z,9.17
2022-07-25T09:13:41.911Z,9.37
2022-07-25T09:16:35.873Z,8.57
2022-07-25T09:19:25.971Z,9.10
2022-07-25T09:22:12.010Z,8.67
2022-07-25T09:24:57.948Z,8.53
2022-07-25T09:27:43.415Z,8.53
2022-07-25T09:30:29.013Z,8.67
2022-07-25T09:33:14.605Z,8.00
2022-07-25T09:36:11.923Z,8.57
2022-07-25T09:39:04.845Z,7.60
2022-07-25T09:44:36.586Z,7.70
2022-07-25T09:47:22.028Z,7.50
2022-07-25T09:50:07.738Z,7.47
2022-07-25T09:52:57.504Z,7.33
2022-07-25T09:55:43.352Z,7.60
2022-07-25T09:58:29.491Z,7.60
2022-07-25T10:01:25.964Z,7.30
2022-07-25T10:04:36.900Z,7.73
2022-07-25T10:07:27.076Z,7.87
2022-07-25T10:10:24.834Z,7.37
2022-07-25T10:13:11.515Z,7.87
2022-07-25T10:15:57.134Z,7.50
2022-07-25T10:18:49.663Z,6.70
2022-07-25T10:21:34.863Z,7.13
2022-07-25T10:24:20.190Z,16.93
2022-07-25T10:27:09.716Z,15.03
2022-07-25T10:29:56.051Z,15.63
2022-07-25T10:33:05.390Z,16.37
2022-07-25T10:35:50.831Z,16.40
2022-07-25T10:38:41.247Z,17.33
2022-07-25T10:41:28.324Z,17.10
2022-07-25T10:44:15.871Z,17.47
2022-07-25T10:47:09.345Z,13.33
2022-07-25T10:53:09.340Z,13.33
2022-07-25T10:56:17.361Z,12.60
2022-07-25T10:59:03.110Z,12.27
2022-07-25T11:01:51.005Z,11.80
2022-07-25T11:04:36.844Z,10.50
2022-07-25T11:07:22.379Z,10.73
2022-07-25T11:10:08.455Z,10.33
2022-07-25T11:12:55.892Z,9.13
2022-07-25T11:15:42.140Z,9.70
2022-07-25T11:18:32.161Z,9.13
2022-07-25T11:21:17.319Z,9.57
2022-07-25T11:24:02.640Z,8.57
2022-07-25T11:26:53.518Z,8.53
2022-07-25T11:29:40.203Z,8.33
2022-07-25T11:32:25.590Z,8.20
2022-07-25T11:35:14.810Z,7.63
2022-07-25T11:38:03.130Z,7.50
2022-07-25T11:40:48.671Z,8.03
2022-07-25T11:43:34.128Z,7.53
2022-07-25T11:46:19.839Z,7.53
2022-07-25T11:49:06.610Z,7.53
2022-07-25T11:51:52.637Z,7.50
2022-07-25T11:54:37.902Z,6.90
2022-07-25T11:57:28.625Z,7.20
2022-07-25T12:00:22.171Z,7.20
2022-07-25T12:03:20.057Z,7.17
2022-07-25T12:06:11.835Z,7.57
2022-07-25T12:08:57.401Z,6.73
2022-07-25T12:11:43.859Z,7.57
2022-07-25T12:14:35.137Z,7.23
2022-07-25T12:17:20.867Z,6.87
2022-07-25T12:20:13.654Z,7.03
2022-07-25T12:23:02.355Z,6.80
2022-07-25T12:25:48.140Z,6.97
2022-07-25T12:28:33.787Z,6.90
2022-07-25T12:31:19.209Z,7.17
2022-07-25T12:34:05.036Z,6.53
2022-07-25T12:36:50.395Z,6.90
2022-07-25T12:39:35.813Z,7.60
2022-07-25T12:42:21.389Z,7.40
2022-07-25T12:45:08.439Z,8.03
2022-07-25T12:47:54.196Z,7.83
2022-07-25T12:50:39.633Z,7.43
2022-07-25T12:53:25.005Z,7.87
2022-07-25T12:56:10.471Z,8.33
2022-07-25T12:58:56.753Z,8.70
2022-07-25T13:01:42.580Z,8.00
2022-07-25T13:04:28.863Z,8.60
2022-07-25T13:07:16.193Z,8.53
2022-07-25T13:10:03.795Z,8.37
2022-07-25T13:12:49.384Z,8.23
2022-07-25T13:15:36.662Z,8.17
2022-07-25T13:18:23.055Z,8.13
2022-07-25T13:21:09.341Z,8.30
2022-07-25T13:23:55.095Z,8.27
2022-07-25T13:26:41.604Z,7.80
2022-07-25T13:29:27.740Z,8.37
2022-07-25T13:32:13.400Z,8.30
2022-07-25T13:34:59.004Z,7.83
2022-07-25T13:37:44.300Z,7.53
2022-07-25T13:40:29.565Z,8.67
2022-07-25T13:43:15.149Z,8.57
2022-07-25T13:46:01.834Z,7.83
2022-07-25T13:48:47.310Z,8.10
2022-07-25T13:51:32.944Z,8.17
2022-07-25T13:54:18.503Z,7.93
2022-07-25T13:57:05.982Z,7.70
2022-07-25T13:59:51.291Z,8.10
2022-07-25T14:02:36.926Z,7.73
2022-07-25T14:05:23.401Z,8.37
2022-07-25T14:08:09.560Z,7.90
2022-07-25T14:10:55.020Z,8.40
2022-07-25T14:13:40.259Z,8.03
2022-07-25T14:16:25.638Z,7.50
2022-07-25T14:19:11.477Z,7.57
2022-07-25T14:21:56.964Z,8.20
2022-07-25T14:24:42.488Z,7.60
2022-07-25T14:27:27.668Z,7.90
2022-07-25T14:30:13.684Z,8.03
2022-07-25T14:32:59.094Z,8.10
2022-07-25T14:35:44.759Z,7.63
2022-07-25T14:38:30.056Z,7.60
2022-07-25T14:41:16.111Z,7.87
2022-07-25T14:44:01.767Z,7.77
2022-07-25T14:46:49.135Z,7.57
2022-07-25T14:49:34.694Z,7.10
2022-07-25T14:52:20.764Z,7.50
2022-07-25T14:55:06.676Z,7.13
2022-07-25T14:57:52.031Z,7.50
2022-07-25T15:00:41.863Z,7.70
2022-07-25T15:03:27.472Z,7.13
2022-07-25T15:06:13.075Z,7.43
2022-07-25T15:08:58.259Z,66.53
2022-07-25T15:11:43.720Z,110.83
2022-07-25T15:14:29.574Z,86.33
2022-07-25T15:17:15.035Z,65.67
2022-07-25T15:20:00.252Z,49.63
2022-07-25T15:22:45.657Z,46.27
2022-07-25T15:26:01.349Z,45.33
2022-07-25T15:28:37.951Z,39.43
2022-07-25T15:31:24.744Z,33.13
2022-07-25T15:34:12.727Z,28.93
2022-07-25T15:36:58.475Z,27.13
2022-07-25T15:39:45.406Z,26.23
2022-07-25T15:42:32.116Z,22.57
2022-07-25T15:45:36.270Z,22.80
2022-07-25T15:48:23.645Z,20.40
2022-07-25T15:51:09.350Z,15.90
2022-07-25T15:53:54.411Z,15.90
2022-07-25T15:56:40.039Z,14.50
2022-07-25T15:59:25.372Z,14.53
2022-07-25T16:02:13.255Z,14.17
2022-07-25T16:04:58.869Z,13.90
2022-07-25T16:07:44.205Z,12.30
2022-07-25T16:10:31.908Z,14.17
2022-07-25T16:13:17.670Z,12.53
2022-07-25T16:16:03.460Z,11.03
2022-07-25T16:18:48.962Z,12.07
2022-07-25T16:21:34.262Z,10.97
2022-07-25T16:24:19.563Z,10.40
2022-07-25T16:27:05.730Z,11.10
2022-07-25T16:29:51.016Z,9.40
2022-07-25T16:32:36.338Z,9.70
2022-07-25T16:35:21.803Z,9.57
2022-07-25T16:38:07.474Z,9.07
2022-07-25T16:40:53.064Z,8.67
2022-07-25T16:43:38.365Z,8.80
2022-07-25T16:46:28.372Z,8.70
2022-07-25T16:49:16.816Z,8.87
2022-07-25T16:52:02.928Z,8.00
2022-07-25T16:54:48.538Z,8.60
2022-07-25T16:57:34.641Z,8.17
2022-07-25T17:00:20.897Z,7.90
2022-07-25T17:03:06.191Z,7.40
2022-07-25T17:05:54.005Z,7.87
2022-07-25T17:08:39.318Z,7.63
2022-07-25T17:11:25.362Z,7.50
2022-07-25T17:14:11.630Z,8.23
2022-07-25T17:16:57.569Z,8.57
2022-07-25T17:19:43.569Z,7.60
2022-07-25T17:22:29.241Z,7.73
2022-07-25T17:25:14.584Z,7.30
2022-07-25T17:28:00.425Z,7.10
2022-07-25T17:30:45.936Z,7.23
2022-07-25T17:33:31.552Z,6.77
2022-07-25T17:36:17.494Z,7.60
2022-07-25T17:39:03.465Z,7.00
2022-07-25T17:41:49.496Z,6.53
2022-07-25T17:44:35.463Z,7.10
2022-07-25T17:47:23.069Z,7.07
2022-07-25T17:50:09.792Z,7.07
2022-07-25T17:52:57.639Z,7.23
2022-07-25T17:55:45.873Z,6.30
2022-07-25T17:58:32.249Z,7.30
2022-07-25T18:01:18.028Z,6.87
2022-07-25T18:04:04.244Z,6.87
2022-07-25T18:06:50.252Z,6.83
2022-07-25T18:09:36.349Z,7.00
2022-07-25T18:12:26.024Z,6.80
2022-07-25T18:15:15.502Z,6.85
2022-07-25T18:18:02.263Z,6.70
2022-07-25T18:20:48.027Z,7.10
2022-07-25T18:23:34.163Z,7.20
2022-07-25T18:26:21.852Z,7.03
2022-07-25T18:29:08.333Z,7.33
2022-07-25T18:31:53.816Z,7.57
2022-07-25T18:34:40.048Z,7.37
2022-07-25T18:37:26.113Z,7.07
2022-07-25T18:40:12.452Z,7.60
2022-07-25T18:42:58.095Z,7.70
2022-07-25T18:45:46.776Z,7.67
2022-07-25T18:48:34.019Z,7.37
2022-07-25T18:51:20.151Z,7.40
2022-07-25T18:54:07.011Z,7.83
2022-07-25T18:56:57.063Z,7.70
2022-07-25T18:59:43.785Z,7.33
2022-07-25T19:02:30.154Z,7.57
2022-07-25T19:05:17.142Z,7.20
2022-07-25T19:08:03.756Z,7.97
2022-07-25T19:10:49.623Z,7.03
2022-07-25T19:13:50.399Z,7.07
2022-07-25T19:16:41.604Z,7.77
2022-07-25T19:19:29.629Z,7.33
2022-07-25T19:22:16.073Z,7.50
2022-07-25T19:25:05.753Z,7.37
2022-07-25T19:27:51.706Z,7.50
2022-07-25T19:30:37.743Z,7.17
2022-07-25T19:33:24.172Z,7.57
2022-07-25T19:36:10.315Z,7.60
2022-07-25T19:38:57.094Z,7.77
2022-07-25T19:41:47.207Z,7.47
2022-07-25T19:44:33.229Z,7.47
2022-07-25T19:47:19.405Z,7.47
2022-07-25T19:50:06.213Z,7.93
2022-07-25T19:52:54.500Z,7.37
2022-07-25T19:55:40.633Z,7.60
2022-07-25T19:58:26.082Z,6.67
2022-07-25T20:01:12.315Z,7.60
2022-07-25T20:03:58.218Z,7.70
2022-07-25T20:06:44.019Z,7.77
2022-07-25T20:09:30.345Z,7.53
2022-07-25T20:12:16.185Z,7.87
2022-07-25T20:15:01.558Z,7.30
2022-07-25T20:17:47.001Z,7.30
2022-07-25T20:20:32.323Z,7.90
2022-07-25T20:23:17.820Z,7.53
2022-07-25T20:26:04.262Z,7.93
2022-07-25T20:28:49.585Z,7.87
2022-07-25T20:31:36.054Z,7.70
2022-07-25T20:34:22.236Z,7.80
2022-07-25T20:37:07.587Z,8.00
2022-07-25T20:39:52.941Z,8.60
2022-07-25T20:42:39.674Z,7.97
2022-07-25T20:45:25.160Z,8.27
2022-07-25T20:48:10.383Z,7.70
2022-07-25T20:50:57.204Z,7.13
2022-07-25T20:53:43.853Z,7.63
2022-07-25T20:56:29.234Z,7.43
2022-07-25T20:59:14.562Z,7.20
2022-07-25T21:02:00.318Z,7.20
2022-07-25T21:04:48.571Z,7.43
2022-07-25T21:07:34.047Z,7.67
2022-07-25T21:10:19.841Z,7.30
2022-07-25T21:13:05.124Z,7.87
2022-07-25T21:15:50.562Z,8.23
2022-07-25T21:18:37.351Z,7.40
2022-07-25T21:21:23.639Z,7.87
2022-07-25T21:24:11.891Z,7.37
2022-07-25T21:26:57.226Z,7.67
2022-07-25T21:29:42.660Z,7.77
2022-07-25T21:32:27.941Z,8.00
2022-07-25T21:35:13.488Z,7.27
2022-07-25T21:37:59.305Z,6.90
2022-07-25T21:40:44.947Z,7.63
2022-07-25T21:43:30.501Z,7.33
2022-07-25T21:46:15.787Z,7.30
2022-07-25T21:49:41.515Z,7.03
2022-07-25T21:52:34.492Z,7.57
2022-07-25T21:55:21.555Z,7.57
2022-07-25T21:58:07.836Z,7.20
2022-07-25T22:00:53.452Z,6.90
2022-07-25T22:03:40.441Z,7.50
2022-07-25T22:06:26.132Z,7.40
2022-07-25T22:09:13.561Z,7.47
2022-07-25T22:11:59.008Z,7.23
2022-07-25T22:14:44.679Z,7.33
2022-07-25T22:17:48.964Z,7.67
2022-07-25T22:20:35.276Z,7.80
2022-07-25T22:23:20.531Z,7.60
2022-07-25T22:26:05.756Z,7.00
2022-07-25T22:28:51.237Z,7.73
2022-07-25T22:31:38.835Z,7.43
2022-07-25T22:34:24.461Z,6.83
2022-07-25T22:37:09.733Z,7.60
2022-07-25T22:40:00.608Z,8.10
2022-07-25T22:42:46.238Z,7.40
2022-07-25T22:45:31.650Z,7.67
2022-07-25T22:48:17.309Z,7.23
2022-07-25T22:51:02.781Z,7.60
2022-07-25T22:53:48.214Z,6.93
2022-07-25T22:56:33.565Z,7.70
2022-07-25T22:59:19.361Z,8.07
2022-07-25T23:02:05.014Z,7.70
2022-07-25T23:04:50.117Z,7.40
2022-07-25T23:07:35.687Z,7.37
2022-07-25T23:10:20.830Z,7.53
2022-07-25T23:13:06.238Z,7.57
2022-07-25T23:15:51.684Z,7.47
2022-07-25T23:18:37.458Z,8.07
2022-07-25T23:21:24.606Z,7.63
2022-07-25T23:24:10.223Z,7.73
2022-07-25T23:26:55.484Z,8.07
2022-07-25T23:29:41.727Z,7.87
2022-07-25T23:32:26.897Z,8.97
2022-07-25T23:35:12.370Z,9.73
2022-07-25T23:37:57.692Z,10.07
2022-07-25T23:40:42.997Z,10.10
2022-07-25T23:43:55.646Z,9.07
2022-07-25T23:46:33.675Z,10.63
2022-07-25T23:49:20.885Z,11.10
2022-07-25T23:52:06.297Z,11.13
2022-07-25T23:54:51.555Z,11.43
2022-07-25T23:57:36.900Z,10.80
